Time;durP1;ratioP1;P1;durP2;ratioP2;P2;SDS_P1;SDS_P2;PMS_P1;PMS_P2;Temp;Humidity;BMP_temperature;BMP_pressure;BME280_temperature;BME280_humidity;BME280_pressure;Samples;Min_cycle;Max_cycle;Signal;HPM_P1;HPM_P2
2022/11/20 00:00:21;;;;;;;9.98;6.40;;;;;5.30;101157.00;;;;5009176;28;20200;-74
2022/11/20 00:02:48;;;;;;;9.38;6.28;;;;;5.30;101152.00;;;;5008882;28;20216;-73
2022/11/20 00:05:18;;;;;;;10.23;6.57;;;;;5.30;101154.00;;;;5019216;28;20199;-74
2022/11/20 00:07:45;;;;;;;12.60;8.10;;;;;5.30;101140.00;;;;5016223;28;20196;-74
2022/11/20 00:10:12;;;;;;;14.80;9.52;;;;;5.20;101143.00;;;;5010665;28;20221;-74
2022/11/20 00:12:39;;;;;;;15.35;9.60;;;;;5.20;101144.00;;;;5021781;28;20215;-74
2022/11/20 00:15:08;;;;;;;13.57;8.20;;;;;5.20;101142.00;;;;5015715;28;20201;-74
2022/11/20 00:17:35;;;;;;;13.05;8.73;;;;;5.20;101143.00;;;;5010043;28;20209;-74
2022/11/20 00:20:02;;;;;;;14.43;8.00;;;;;5.20;101147.00;;;;5020286;28;20223;-74
2022/11/20 00:22:31;;;;;;;13.02;8.20;;;;;5.10;101151.00;;;;5027564;28;20666;-74
2022/11/20 00:24:58;;;;;;;14.68;9.07;;;;;5.10;101150.00;;;;5014040;28;20200;-74
2022/11/20 00:27:25;;;;;;;14.00;8.82;;;;;5.10;101143.00;;;;5020665;28;20193;-74
2022/11/20 00:29:53;;;;;;;13.05;8.13;;;;;5.10;101142.00;;;;5017881;28;20209;-74
2022/11/20 00:32:20;;;;;;;11.15;8.05;;;;;5.10;101136.00;;;;5009331;28;20201;-74
2022/11/20 00:34:47;;;;;;;13.45;8.35;;;;;5.10;101129.00;;;;5022220;28;20232;-74
2022/11/20 00:37:15;;;;;;;11.32;7.05;;;;;5.10;101127.00;;;;5017272;28;20207;-74
2022/11/20 00:39:43;;;;;;;12.70;7.35;;;;;5.00;101127.00;;;;5021042;28;20210;-74
2022/11/20 00:42:11;;;;;;;11.93;7.50;;;;;5.00;101121.00;;;;5016289;28;20201;-74
2022/11/20 00:44:38;;;;;;;10.25;6.75;;;;;5.00;101118.00;;;;5011293;28;20196;-74
2022/11/20 00:47:06;;;;;;;11.80;6.65;;;;;5.00;101125.00;;;;5012295;28;20211;-75
2022/11/20 00:49:34;;;;;;;8.10;5.50;;;;;5.00;101114.00;;;;5009269;28;20229;-74
2022/11/20 00:52:01;;;;;;;7.90;5.68;;;;;5.00;101116.00;;;;5021270;28;20224;-74
2022/11/20 00:54:28;;;;;;;9.05;5.72;;;;;5.00;101118.00;;;;5014284;28;20197;-74
2022/11/20 00:56:57;;;;;;;9.10;6.22;;;;;4.90;101118.00;;;;5022778;28;20204;-74
2022/11/20 00:59:24;;;;;;;8.35;5.88;;;;;4.90;101110.00;;;;5009677;28;20201;-74
2022/11/20 01:01:52;;;;;;;8.50;5.28;;;;;4.90;101106.00;;;;5010220;28;20205;-74
2022/11/20 01:04:19;;;;;;;8.15;6.07;;;;;4.90;101110.00;;;;5009540;28;20205;-74
2022/11/20 01:06:46;;;;;;;9.05;5.57;;;;;4.90;101111.00;;;;5009835;28;20201;-74
2022/11/20 01:09:15;;;;;;;8.98;6.13;;;;;4.90;101109.00;;;;5017675;28;20188;-74
2022/11/20 01:11:44;;;;;;;9.02;5.90;;;;;4.90;101109.00;;;;5009680;28;20200;-74
2022/11/20 01:14:15;;;;;;;8.93;5.40;;;;;4.80;101119.00;;;;5020325;28;20216;-74
2022/11/20 01:16:45;;;;;;;8.20;5.30;;;;;4.80;101119.00;;;;5006671;28;20204;-74
2022/11/20 01:19:14;;;;;;;9.45;6.30;;;;;4.80;101122.00;;;;5015489;28;20205;-75
2022/11/20 01:21:46;;;;;;;9.27;6.18;;;;;4.80;101128.00;;;;5016400;28;20196;-74
2022/11/20 01:24:16;;;;;;;8.07;5.57;;;;;4.80;101120.00;;;;5022610;28;20199;-75
2022/11/20 01:26:44;;;;;;;10.93;6.60;;;;;4.80;101113.00;;;;5017132;28;20192;-74
2022/11/20 01:29:15;;;;;;;8.23;6.00;;;;;4.80;101113.00;;;;5023232;28;20211;-75
2022/11/20 01:31:43;;;;;;;10.40;6.75;;;;;4.80;101112.00;;;;5022191;28;20209;-74
2022/11/20 01:34:13;;;;;;;9.90;6.80;;;;;4.80;101111.00;;;;5013052;28;20220;-75
2022/11/20 01:36:41;;;;;;;9.88;6.50;;;;;4.80;101116.00;;;;5010923;28;20205;-75
2022/11/20 01:39:11;;;;;;;9.35;6.47;;;;;4.80;101116.00;;;;5011180;28;20610;-74
2022/11/20 01:44:52;;;;;;;7.68;5.47;;;;;4.70;101105.00;;;;4929007;29;20210;-75
2022/11/20 01:47:30;;;;;;;10.77;6.10;;;;;4.70;101100.00;;;;4929197;29;20413;-74
2022/11/20 01:50:00;;;;;;;9.93;6.18;;;;;4.70;101101.00;;;;4977076;28;20229;-74
2022/11/20 01:52:33;;;;;;;9.02;5.68;;;;;4.70;101106.00;;;;5016832;28;20216;-74
2022/11/20 01:55:05;;;;;;;10.93;6.65;;;;;4.70;101109.00;;;;5008556;28;20213;-75
2022/11/20 01:57:35;;;;;;;9.32;6.25;;;;;4.70;101113.00;;;;5008226;28;20200;-75
2022/11/20 02:00:09;;;;;;;10.25;6.65;;;;;4.60;101111.00;;;;5009111;28;20239;-74
2022/11/20 02:02:37;;;;;;;10.73;6.57;;;;;4.70;101111.00;;;;5006853;28;20284;-74
2022/11/20 02:05:11;;;;;;;8.18;5.97;;;;;4.70;101114.00;;;;5008612;28;20204;-74
2022/11/20 02:07:39;;;;;;;9.18;5.60;;;;;4.70;101106.00;;;;5008441;28;20201;-74
2022/11/20 02:10:07;;;;;;;11.27;6.45;;;;;4.60;101107.00;;;;5018643;28;20225;-74
2022/11/20 02:15:20;;;;;;;9.40;5.78;;;;;4.60;101091.00;;;;5018734;28;20253;-74
2022/11/20 02:17:47;;;;;;;10.18;6.38;;;;;4.60;101085.00;;;;5025188;28;20204;-75
2022/11/20 02:20:15;;;;;;;13.27;6.68;;;;;4.60;101084.00;;;;5007975;28;20189;-74
2022/11/20 02:22:51;;;;;;;9.70;6.18;;;;;4.50;101085.00;;;;5007992;28;20201;-75
2022/11/20 02:25:21;;;;;;;9.20;5.80;;;;;4.60;101083.00;;;;5015229;28;20196;-74
2022/11/20 02:27:49;;;;;;;9.23;6.45;;;;;4.60;101074.00;;;;5013078;28;20193;-74
2022/11/20 02:30:17;;;;;;;9.57;6.03;;;;;4.60;101073.00;;;;5012468;28;20228;-74
2022/11/20 02:32:44;;;;;;;7.88;5.80;;;;;4.60;101062.00;;;;5011088;28;20204;-74
2022/11/20 02:35:45;;;;;;;9.55;5.93;;;;;4.40;101065.00;;;;5022207;28;20227;-74
2022/11/20 02:38:15;;;;;;;10.13;6.07;;;;;4.50;101076.00;;;;5011815;28;20850;-74
2022/11/20 02:40:44;;;;;;;8.70;5.68;;;;;4.50;101069.00;;;;5011675;28;20208;-74
2022/11/20 02:43:11;;;;;;;8.02;5.75;;;;;4.50;101064.00;;;;5011505;28;20208;-74
2022/11/20 02:45:38;;;;;;;8.82;6.20;;;;;4.50;101068.00;;;;5009926;28;20201;-74
2022/11/20 02:48:08;;;;;;;8.80;5.22;;;;;4.50;101076.00;;;;5012243;28;20201;-74
2022/11/20 02:50:39;;;;;;;8.70;5.65;;;;;4.40;101076.00;;;;5011402;28;20263;-74
2022/11/20 02:53:06;;;;;;;8.80;6.05;;;;;4.40;101090.00;;;;5010484;28;20638;-74
2022/11/20 02:55:34;;;;;;;9.68;5.70;;;;;4.40;101087.00;;;;5010361;28;20208;-74
2022/11/20 02:58:02;;;;;;;9.13;5.75;;;;;4.40;101072.00;;;;5011114;28;20204;-74
2022/11/20 03:00:30;;;;;;;12.32;7.28;;;;;4.40;101075.00;;;;5011636;28;20201;-74
2022/11/20 03:02:57;;;;;;;8.85;6.05;;;;;4.40;101075.00;;;;5019357;28;20215;-74
2022/11/20 03:05:24;;;;;;;9.35;6.32;;;;;4.40;101084.00;;;;5021205;28;20193;-74
2022/11/20 03:07:52;;;;;;;9.40;6.07;;;;;4.40;101071.00;;;;5030028;28;20204;-74
2022/11/20 03:10:19;;;;;;;8.93;5.65;;;;;4.30;101067.00;;;;5012729;28;20244;-74
2022/11/20 03:12:46;;;;;;;11.07;6.63;;;;;4.30;101066.00;;;;5011313;28;20620;-74
2022/11/20 03:15:15;;;;;;;15.00;6.75;;;;;4.30;101060.00;;;;5021165;28;20211;-74
2022/11/20 03:17:42;;;;;;;10.65;6.28;;;;;4.30;101069.00;;;;5016067;28;20205;-74
2022/11/20 03:20:11;;;;;;;9.60;5.72;;;;;4.30;101057.00;;;;5017479;28;20666;-74
2022/11/20 03:22:38;;;;;;;7.53;5.28;;;;;4.30;101055.00;;;;5018102;28;20199;-74
2022/11/20 03:25:06;;;;;;;8.38;5.65;;;;;4.20;101050.00;;;;5019505;28;20204;-74
2022/11/20 03:27:35;;;;;;;9.88;6.30;;;;;4.20;101047.00;;;;5010675;28;20201;-74
2022/11/20 03:30:02;;;;;;;8.90;6.15;;;;;4.20;101048.00;;;;5013870;28;20867;-74
2022/11/20 03:32:31;;;;;;;9.23;6.15;;;;;4.20;101051.00;;;;5023993;28;20204;-74
2022/11/20 03:34:58;;;;;;;8.80;5.88;;;;;4.20;101054.00;;;;5015904;28;20197;-74
2022/11/20 03:37:25;;;;;;;8.57;5.53;;;;;4.10;101053.00;;;;5022473;28;20197;-74
2022/11/20 03:39:52;;;;;;;9.05;5.38;;;;;4.10;101055.00;;;;5017181;28;20204;-74
2022/11/20 03:45:01;;;;;;;9.23;5.63;;;;;4.10;101047.00;;;;5016258;28;20232;-74
2022/11/20 03:47:29;;;;;;;8.82;5.70;;;;;4.00;101040.00;;;;5010786;28;20567;-75
2022/11/20 03:49:57;;;;;;;8.00;5.57;;;;;4.00;101042.00;;;;5011040;28;20193;-75
2022/11/20 03:52:24;;;;;;;9.35;6.13;;;;;4.00;101035.00;;;;5018196;28;20215;-74
2022/11/20 03:54:51;;;;;;;11.32;6.63;;;;;4.00;101030.00;;;;5008741;28;20231;-74
2022/11/20 03:57:18;;;;;;;8.35;5.90;;;;;4.00;101034.00;;;;5011826;28;20555;-74
2022/11/20 03:59:45;;;;;;;9.00;6.22;;;;;4.00;101021.00;;;;5011313;28;20212;-74
2022/11/20 04:02:13;;;;;;;9.32;6.03;;;;;4.00;101022.00;;;;5010683;28;20200;-74
2022/11/20 04:04:41;;;;;;;9.00;6.15;;;;;3.90;101023.00;;;;5025125;28;20208;-74
2022/11/20 04:07:09;;;;;;;8.85;5.88;;;;;3.90;101026.00;;;;5028139;28;20670;-74
2022/11/20 04:09:36;;;;;;;9.25;5.70;;;;;3.90;101023.00;;;;5022209;28;20200;-74
2022/11/20 04:12:03;;;;;;;10.00;6.45;;;;;3.90;101017.00;;;;5022524;28;20232;-74
2022/11/20 04:14:31;;;;;;;9.07;5.72;;;;;3.90;101016.00;;;;5016491;28;20660;-74
2022/11/20 04:16:58;;;;;;;10.25;6.07;;;;;3.90;101018.00;;;;5010376;28;20751;-74
2022/11/20 04:19:25;;;;;;;9.10;6.40;;;;;3.90;101015.00;;;;5009556;28;20204;-74
2022/11/20 04:21:54;;;;;;;9.82;5.47;;;;;3.80;101011.00;;;;5010419;28;20196;-74
2022/11/20 04:24:21;;;;;;;9.20;6.00;;;;;3.80;101004.00;;;;5009282;28;20224;-74
2022/11/20 04:26:48;;;;;;;10.02;6.72;;;;;3.80;101010.00;;;;5008932;28;20193;-74
2022/11/20 04:29:16;;;;;;;8.23;5.40;;;;;3.80;100998.00;;;;5009988;28;20197;-74
2022/11/20 04:31:43;;;;;;;9.82;6.35;;;;;3.80;101002.00;;;;5009520;28;20241;-74
2022/11/20 04:34:13;;;;;;;8.88;5.93;;;;;3.70;101001.00;;;;5009468;28;20228;-74
2022/11/20 04:36:40;;;;;;;9.02;5.60;;;;;3.80;101003.00;;;;5009393;28;20205;-74
2022/11/20 04:39:14;;;;;;;8.73;5.95;;;;;3.70;101000.00;;;;5009709;28;20201;-74
2022/11/20 04:41:41;;;;;;;8.85;5.75;;;;;3.70;100994.00;;;;5010502;28;20259;-74
2022/11/20 04:44:08;;;;;;;9.32;6.30;;;;;3.70;100990.00;;;;5016219;28;20189;-74
2022/11/20 04:46:38;;;;;;;9.48;5.85;;;;;3.70;100996.00;;;;5012913;28;20197;-74
2022/11/20 04:49:06;;;;;;;9.65;5.57;;;;;3.70;100984.00;;;;5013073;28;20200;-74
2022/11/20 04:51:34;;;;;;;8.52;5.53;;;;;3.70;100997.00;;;;5009923;28;20239;-74
2022/11/20 04:54:01;;;;;;;7.63;5.57;;;;;3.70;100998.00;;;;5027859;28;20208;-74
2022/11/20 04:56:30;;;;;;;10.43;6.45;;;;;3.70;100991.00;;;;5013308;28;20216;-74
2022/11/20 04:59:00;;;;;;;9.55;6.63;;;;;3.70;100989.00;;;;5009368;28;20197;-74
2022/11/20 05:01:27;;;;;;;9.32;5.65;;;;;3.70;100989.00;;;;5011651;28;20220;-74
2022/11/20 05:03:55;;;;;;;8.75;5.57;;;;;3.60;100984.00;;;;5010041;28;20193;-74
2022/11/20 05:06:23;;;;;;;10.07;6.63;;;;;3.60;100980.00;;;;5011767;28;20216;-74
2022/11/20 05:08:50;;;;;;;8.48;5.93;;;;;3.60;100973.00;;;;5008154;28;20479;-74
2022/11/20 05:11:20;;;;;;;8.43;5.70;;;;;3.60;100970.00;;;;5008672;28;20220;-74
2022/11/20 05:13:49;;;;;;;8.18;5.60;;;;;3.60;100970.00;;;;5008841;28;20667;-75
2022/11/20 05:16:18;;;;;;;8.10;5.68;;;;;3.60;100968.00;;;;5026652;28;20208;-75
2022/11/20 05:18:45;;;;;;;10.10;6.38;;;;;3.60;100963.00;;;;5019756;28;20204;-74
2022/11/20 05:21:14;;;;;;;8.60;5.80;;;;;3.60;100958.00;;;;5006878;28;20208;-74
2022/11/20 05:23:42;;;;;;;9.30;5.93;;;;;3.60;100958.00;;;;5020406;28;20197;-74
2022/11/20 05:26:14;;;;;;;11.43;5.78;;;;;3.50;100958.00;;;;5009024;28;20205;-74
2022/11/20 05:28:41;;;;;;;10.00;5.65;;;;;3.60;100958.00;;;;5008760;28;20205;-74
2022/11/20 05:31:12;;;;;;;8.73;5.65;;;;;3.50;100950.00;;;;5009464;28;20232;-75
2022/11/20 05:33:41;;;;;;;9.25;5.93;;;;;3.50;100948.00;;;;5026023;28;20228;-74
2022/11/20 05:36:10;;;;;;;8.60;5.80;;;;;3.50;100953.00;;;;5011909;28;20201;-74
2022/11/20 05:38:38;;;;;;;8.85;6.10;;;;;3.50;100955.00;;;;5008997;28;20200;-74
2022/11/20 05:41:06;;;;;;;10.13;5.65;;;;;3.50;100953.00;;;;5022980;28;20649;-74
2022/11/20 05:43:34;;;;;;;9.05;5.50;;;;;3.50;100949.00;;;;5010072;28;20201;-74
2022/11/20 05:46:02;;;;;;;10.25;6.43;;;;;3.40;100951.00;;;;5009128;28;20284;-75
2022/11/20 05:48:31;;;;;;;8.98;5.38;;;;;3.40;100961.00;;;;5017491;28;20196;-74
2022/11/20 05:50:59;;;;;;;7.97;5.40;;;;;3.40;100958.00;;;;5017147;28;20224;-74
2022/11/20 05:53:26;;;;;;;10.13;5.88;;;;;3.40;100970.00;;;;5027542;28;20208;-74
2022/11/20 05:56:00;;;;;;;10.48;6.32;;;;;3.40;100976.00;;;;5009649;28;20193;-75
2022/11/20 05:58:28;;;;;;;7.90;5.55;;;;;3.40;100980.00;;;;5016621;28;20196;-75
2022/11/20 06:00:55;;;;;;;8.48;6.05;;;;;3.40;100983.00;;;;5016658;28;20565;-75
2022/11/20 06:03:22;;;;;;;9.57;6.47;;;;;3.40;100981.00;;;;5012676;28;20201;-75
2022/11/20 06:05:51;;;;;;;10.43;5.97;;;;;3.40;100992.00;;;;5018110;28;20212;-75
2022/11/20 06:08:18;;;;;;;10.35;6.55;;;;;3.40;100988.00;;;;5018294;28;20200;-74
2022/11/20 06:10:45;;;;;;;9.45;5.80;;;;;3.30;100996.00;;;;5013428;28;20694;-75
2022/11/20 06:13:13;;;;;;;10.25;6.95;;;;;3.30;100987.00;;;;5022115;28;20196;-75
2022/11/20 06:15:40;;;;;;;9.05;5.97;;;;;3.30;100990.00;;;;5023357;28;20526;-75
2022/11/20 06:18:07;;;;;;;8.43;5.72;;;;;3.40;100998.00;;;;5017777;28;20204;-74
2022/11/20 06:20:34;;;;;;;8.95;5.57;;;;;3.40;100989.00;;;;5018211;28;20212;-74
2022/11/20 06:23:03;;;;;;;9.68;6.20;;;;;3.40;100988.00;;;;5015721;28;20192;-75
2022/11/20 06:25:30;;;;;;;8.77;5.85;;;;;3.40;100986.00;;;;5016759;28;20201;-75
2022/11/20 06:27:57;;;;;;;9.63;6.57;;;;;3.40;100985.00;;;;5021121;28;20666;-75
2022/11/20 06:30:25;;;;;;;10.82;6.22;;;;;3.40;100982.00;;;;5011849;28;20197;-75
2022/11/20 06:32:52;;;;;;;9.55;5.93;;;;;3.40;100980.00;;;;5012974;28;20236;-75
2022/11/20 06:35:19;;;;;;;9.63;6.20;;;;;3.40;100977.00;;;;5023960;28;20212;-75
2022/11/20 06:37:46;;;;;;;10.43;6.43;;;;;3.40;100985.00;;;;5028208;28;20547;-75
2022/11/20 06:40:17;;;;;;;8.15;5.20;;;;;3.40;100979.00;;;;5019417;28;20201;-74
2022/11/20 06:42:45;;;;;;;8.15;4.95;;;;;3.40;100977.00;;;;5012904;28;20220;-75
2022/11/20 06:45:12;;;;;;;8.88;6.07;;;;;3.50;100993.00;;;;5013376;28;20198;-75
2022/11/20 06:47:39;;;;;;;9.30;5.93;;;;;3.50;100988.00;;;;5012704;28;20204;-75
2022/11/20 06:50:07;;;;;;;9.65;6.03;;;;;3.40;100989.00;;;;5012504;28;20193;-75
2022/11/20 06:52:35;;;;;;;9.77;6.30;;;;;3.50;100991.00;;;;5013277;28;20291;-75
2022/11/20 06:55:02;;;;;;;9.73;6.07;;;;;3.50;100985.00;;;;5015429;28;20197;-75
2022/11/20 06:57:31;;;;;;;9.10;6.22;;;;;3.40;100977.00;;;;5026791;28;20662;-75
2022/11/20 06:59:58;;;;;;;9.85;6.25;;;;;3.50;100971.00;;;;5015462;28;20190;-74
2022/11/20 07:02:25;;;;;;;10.55;6.68;;;;;3.50;100973.00;;;;5013962;28;20185;-74
2022/11/20 07:04:52;;;;;;;13.35;8.73;;;;;3.50;100970.00;;;;5013696;28;20200;-74
2022/11/20 07:07:20;;;;;;;13.00;8.30;;;;;3.50;100959.00;;;;5009502;28;20197;-75
2022/11/20 07:09:47;;;;;;;10.75;6.97;;;;;3.50;100960.00;;;;5023422;28;20212;-74
2022/11/20 07:12:14;;;;;;;11.52;6.82;;;;;3.50;100956.00;;;;5018093;28;20266;-74
2022/11/20 07:14:43;;;;;;;10.80;7.30;;;;;3.50;100968.00;;;;5024630;28;20216;-75
2022/11/20 07:17:10;;;;;;;12.07;6.80;;;;;3.50;100962.00;;;;5019769;28;20196;-75
2022/11/20 07:19:37;;;;;;;17.70;7.47;;;;;3.60;100960.00;;;;5028242;28;20200;-75
2022/11/20 07:22:05;;;;;;;11.13;7.60;;;;;3.60;100965.00;;;;5014000;28;20205;-76
2022/11/20 07:24:32;;;;;;;10.85;6.80;;;;;3.60;100957.00;;;;5017639;28;20201;-75
2022/11/20 07:26:59;;;;;;;11.93;7.53;;;;;3.60;100957.00;;;;5027086;28;20196;-76
2022/11/20 07:29:26;;;;;;;12.23;7.43;;;;;3.60;100949.00;;;;5016435;28;20201;-76
2022/11/20 07:31:56;;;;;;;12.23;7.45;;;;;3.70;100944.00;;;;5010556;28;20710;-76
2022/11/20 07:34:23;;;;;;;11.80;7.55;;;;;3.70;100949.00;;;;5022040;28;20228;-76
2022/11/20 07:36:51;;;;;;;11.00;7.13;;;;;3.70;100951.00;;;;5016287;28;20204;-75
2022/11/20 07:39:18;;;;;;;10.43;6.30;;;;;3.70;100950.00;;;;5008535;28;20240;-75
2022/11/20 07:41:45;;;;;;;8.65;6.13;;;;;3.80;100953.00;;;;5009156;28;20200;-75
2022/11/20 07:44:12;;;;;;;12.63;7.32;;;;;3.80;100953.00;;;;5017633;28;20675;-76
2022/11/20 07:46:40;;;;;;;9.98;6.45;;;;;3.90;100959.00;;;;5008065;28;20216;-76
2022/11/20 07:49:08;;;;;;;10.65;6.60;;;;;3.90;100960.00;;;;5025231;28;20204;-75
2022/11/20 07:51:35;;;;;;;9.02;6.28;;;;;4.00;100964.00;;;;5028201;28;20239;-76
2022/11/20 07:54:03;;;;;;;10.98;7.15;;;;;4.00;100963.00;;;;5015394;28;20204;-76
2022/11/20 07:56:30;;;;;;;10.73;7.25;;;;;4.10;100973.00;;;;5029449;28;20235;-76
2022/11/20 07:58:57;;;;;;;10.50;6.43;;;;;4.20;100972.00;;;;5022204;28;20197;-76
2022/11/20 08:01:25;;;;;;;11.20;7.10;;;;;4.30;100962.00;;;;5011915;28;20212;-75
2022/11/20 08:03:52;;;;;;;11.68;7.38;;;;;4.30;100951.00;;;;5016261;28;20196;-75
2022/11/20 08:06:21;;;;;;;12.20;7.38;;;;;4.40;100945.00;;;;5015166;28;20208;-76
2022/11/20 08:08:48;;;;;;;9.38;6.10;;;;;4.50;100952.00;;;;5016881;28;20219;-76
2022/11/20 08:14:12;;;;;;;11.07;7.55;;;;;4.60;100937.00;;;;5014821;28;20297;-75
2022/11/20 08:16:40;;;;;;;9.30;6.40;;;;;4.70;100939.00;;;;5010004;28;20710;-73
2022/11/20 08:19:07;;;;;;;9.90;7.03;;;;;4.80;100939.00;;;;5015458;28;20208;-75
2022/11/20 08:21:36;;;;;;;9.48;6.90;;;;;4.90;100935.00;;;;5012944;28;20594;-75
2022/11/20 08:24:04;;;;;;;10.40;7.22;;;;;5.00;100939.00;;;;5014952;28;20204;-75
2022/11/20 08:26:31;;;;;;;9.48;6.93;;;;;5.10;100943.00;;;;5019102;28;20201;-75
2022/11/20 08:28:59;;;;;;;13.75;8.38;;;;;5.20;100945.00;;;;5019276;28;20199;-75
2022/11/20 08:31:28;;;;;;;13.13;8.48;;;;;5.20;100941.00;;;;5022961;28;20216;-75
2022/11/20 08:33:55;;;;;;;13.63;8.30;;;;;5.30;100951.00;;;;5018713;28;20240;-75
2022/11/20 08:36:23;;;;;;;11.95;7.55;;;;;5.40;100948.00;;;;5015806;28;20227;-75
2022/11/20 08:38:53;;;;;;;9.95;7.53;;;;;5.50;100950.00;;;;5023146;28;20200;-74
2022/11/20 08:41:27;;;;;;;10.63;7.43;;;;;5.50;100963.00;;;;5015129;28;20212;-76
2022/11/20 08:43:57;;;;;;;11.48;7.10;;;;;5.60;100961.00;;;;5011293;28;20228;-76
2022/11/20 08:46:25;;;;;;;12.18;7.70;;;;;5.70;100955.00;;;;5016297;28;20662;-77
2022/11/20 08:48:54;;;;;;;11.55;7.70;;;;;5.70;100957.00;;;;5019014;28;20546;-77
2022/11/20 08:51:21;;;;;;;12.23;8.15;;;;;5.80;100950.00;;;;5017395;28;20782;-76
2022/11/20 08:53:49;;;;;;;10.70;8.10;;;;;5.90;100954.00;;;;5015209;28;20200;-77
2022/11/20 08:56:18;;;;;;;11.32;8.10;;;;;5.90;100953.00;;;;5011830;28;20200;-77
2022/11/20 08:58:46;;;;;;;12.63;8.65;;;;;6.00;100951.00;;;;5017021;28;20674;-77
2022/11/20 09:01:13;;;;;;;14.05;8.73;;;;;6.10;100947.00;;;;5016129;28;20208;-77
2022/11/20 09:03:41;;;;;;;12.73;8.55;;;;;6.10;100948.00;;;;5018164;28;20227;-77
2022/11/20 09:06:09;;;;;;;10.90;7.90;;;;;6.20;100944.00;;;;5012034;28;20201;-77
2022/11/20 09:08:37;;;;;;;13.55;9.18;;;;;6.20;100946.00;;;;5012880;28;20196;-76
2022/11/20 09:11:05;;;;;;;16.48;8.68;;;;;6.30;100941.00;;;;5013549;28;20969;-77
2022/11/20 09:13:35;;;;;;;13.05;8.77;;;;;6.30;100933.00;;;;5008215;28;20220;-78
2022/11/20 09:16:06;;;;;;;12.48;8.70;;;;;6.40;100927.00;;;;5010412;28;20200;-75
2022/11/20 09:18:38;;;;;;;13.43;9.52;;;;;6.50;100921.00;;;;5008405;28;20209;-77
2022/11/20 09:21:08;;;;;;;11.57;8.32;;;;;6.60;100923.00;;;;5011487;28;20280;-76
2022/11/20 09:23:36;;;;;;;11.65;8.48;;;;;6.60;100915.00;;;;5013469;28;20239;-76
2022/11/20 09:26:04;;;;;;;13.13;8.48;;;;;6.70;100919.00;;;;5012661;28;20213;-76
2022/11/20 09:28:33;;;;;;;12.20;8.95;;;;;6.80;100919.00;;;;5009234;28;20208;-76
2022/11/20 09:31:01;;;;;;;12.82;8.95;;;;;6.80;100910.00;;;;5015247;28;20203;-76
2022/11/20 09:33:28;;;;;;;12.48;8.50;;;;;6.90;100905.00;;;;5007426;28;20241;-76
2022/11/20 09:35:56;;;;;;;12.68;8.88;;;;;7.00;100906.00;;;;5016297;28;20208;-76
2022/11/20 09:38:23;;;;;;;11.07;7.63;;;;;7.00;100902.00;;;;5010195;28;20203;-75
2022/11/20 09:40:57;;;;;;;11.13;7.75;;;;;7.00;100901.00;;;;5018553;28;20560;-75
2022/11/20 09:43:38;;;;;;;11.63;8.50;;;;;7.10;100896.00;;;;5018603;28;20200;-76
2022/11/20 09:46:13;;;;;;;11.27;7.95;;;;;7.20;100895.00;;;;5012543;28;20678;-76
2022/11/20 09:48:56;;;;;;;13.35;9.32;;;;;7.20;100898.00;;;;5013783;28;20212;-76
2022/11/20 09:51:36;;;;;;;14.13;9.68;;;;;7.30;100895.00;;;;5015398;28;20216;-76
2022/11/20 09:54:15;;;;;;;11.85;9.05;;;;;7.30;100895.00;;;;5007377;28;20221;-76
2022/11/20 09:56:47;;;;;;;18.50;9.00;;;;;7.40;100892.00;;;;5008225;28;20385;-76
2022/11/20 09:59:30;;;;;;;12.60;8.63;;;;;7.50;100887.00;;;;5007383;28;20205;-74
2022/11/20 10:01:58;;;;;;;11.43;8.10;;;;;7.60;100882.00;;;;5019432;28;20196;-76
2022/11/20 10:04:26;;;;;;;11.25;8.15;;;;;7.60;100881.00;;;;5022421;28;20746;-76
2022/11/20 10:07:03;;;;;;;10.85;8.75;;;;;7.60;100874.00;;;;5012616;28;20211;-76
2022/11/20 10:09:34;;;;;;;13.43;9.45;;;;;7.70;100875.00;;;;5012981;28;20201;-76
2022/11/20 10:12:14;;;;;;;12.18;8.27;;;;;7.70;100891.00;;;;5009290;28;20224;-76
2022/11/20 10:15:06;;;;;;;11.65;8.95;;;;;7.80;100881.00;;;;5010702;28;20201;-76
2022/11/20 10:17:56;;;;;;;12.82;8.50;;;;;7.80;100869.00;;;;5028067;28;20196;-76
2022/11/20 10:20:30;;;;;;;11.02;8.75;;;;;7.80;100848.00;;;;5027789;28;20857;-76
2022/11/20 10:23:25;;;;;;;11.93;8.45;;;;;7.80;100854.00;;;;5012680;28;20205;-76
2022/11/20 10:26:01;;;;;;;12.88;9.13;;;;;7.90;100854.00;;;;5007577;28;20209;-76
2022/11/20 10:28:44;;;;;;;13.43;9.02;;;;;8.00;100849.00;;;;5008064;28;20203;-77
2022/11/20 10:31:24;;;;;;;16.40;9.10;;;;;8.00;100846.00;;;;5008361;28;20192;-76
2022/11/20 10:33:53;;;;;;;13.07;9.13;;;;;8.10;100826.00;;;;5006740;28;20244;-76
2022/11/20 10:36:24;;;;;;;13.63;9.45;;;;;8.20;100829.00;;;;5007990;28;20193;-76
2022/11/20 10:38:57;;;;;;;13.63;9.32;;;;;8.20;100815.00;;;;5007704;28;20570;-76
2022/11/20 10:41:29;;;;;;;14.10;9.57;;;;;8.20;100815.00;;;;5007597;28;20208;-76
2022/11/20 10:44:05;;;;;;;14.75;9.10;;;;;8.30;100814.00;;;;5008400;28;20212;-76
2022/11/20 10:46:40;;;;;;;14.13;9.32;;;;;8.30;100801.00;;;;5010989;28;20721;-76
2022/11/20 10:49:15;;;;;;;15.70;9.18;;;;;8.40;100796.00;;;;5011363;28;20192;-76
2022/11/20 10:51:53;;;;;;;15.45;9.80;;;;;8.50;100789.00;;;;5010768;28;20279;-76
2022/11/20 10:54:28;;;;;;;15.00;9.93;;;;;8.60;100787.00;;;;5011714;28;20207;-76
2022/11/20 10:57:01;;;;;;;14.52;9.48;;;;;8.60;100778.00;;;;5011384;28;20636;-76
2022/11/20 10:59:50;;;;;;;17.20;9.10;;;;;8.70;100771.00;;;;5012522;28;20201;-77
2022/11/20 11:02:21;;;;;;;13.95;9.25;;;;;8.80;100772.00;;;;5011699;28;20209;-77
2022/11/20 11:04:50;;;;;;;14.15;10.18;;;;;8.90;100767.00;;;;5011598;28;20196;-77
2022/11/20 11:07:23;;;;;;;13.82;9.57;;;;;8.90;100768.00;;;;5012020;28;20200;-77
2022/11/20 11:09:53;;;;;;;15.18;10.85;;;;;9.00;100769.00;;;;5011673;28;21007;-77
2022/11/20 11:12:21;;;;;;;15.25;10.05;;;;;9.00;100760.00;;;;5011709;28;20221;-78
2022/11/20 11:14:50;;;;;;;15.15;9.93;;;;;9.10;100756.00;;;;5012057;28;20201;-77
2022/11/20 11:17:28;;;;;;;16.00;10.55;;;;;9.00;100738.00;;;;5018420;28;20591;-77
2022/11/20 11:20:07;;;;;;;16.73;11.10;;;;;9.10;100735.00;;;;5030971;28;20196;-77
2022/11/20 11:22:44;;;;;;;13.57;10.15;;;;;9.20;100729.00;;;;5030706;28;20234;-77
2022/11/20 11:25:21;;;;;;;15.02;9.88;;;;;9.20;100732.00;;;;5031343;28;20293;-77
2022/11/20 11:27:50;;;;;;;15.57;10.10;;;;;9.30;100721.00;;;;5021400;28;20205;-77
2022/11/20 11:30:20;;;;;;;14.65;10.60;;;;;9.30;100724.00;;;;5011295;28;20567;-77
2022/11/20 11:32:48;;;;;;;14.45;10.23;;;;;9.30;100726.00;;;;5011371;28;20240;-75
2022/11/20 11:35:27;;;;;;;16.05;11.23;;;;;9.30;100724.00;;;;5010250;28;20212;-75
2022/11/20 11:38:03;;;;;;;17.38;12.32;;;;;9.30;100712.00;;;;5010784;28;20201;-75
2022/11/20 11:40:32;;;;;;;15.82;10.35;;;;;9.40;100713.00;;;;5009793;28;20207;-75
2022/11/20 11:43:03;;;;;;;15.68;10.30;;;;;9.40;100712.00;;;;5011034;28;20201;-75
2022/11/20 11:45:29;;;;;;;15.88;10.57;;;;;9.40;100708.00;;;;5010071;28;21037;-75
2022/11/20 11:48:02;;;;;;;16.50;11.52;;;;;9.40;100712.00;;;;5010265;28;20267;-75
2022/11/20 11:50:30;;;;;;;16.55;12.00;;;;;9.50;100708.00;;;;5011894;28;20204;-76
2022/11/20 11:53:06;;;;;;;17.48;12.38;;;;;9.50;100694.00;;;;5021080;28;20243;-75
2022/11/20 11:55:38;;;;;;;15.93;10.63;;;;;9.50;100681.00;;;;5030175;28;20188;-75
2022/11/20 11:58:20;;;;;;;16.38;10.98;;;;;9.50;100669.00;;;;5023697;28;20584;-74
2022/11/20 12:00:54;;;;;;;20.13;11.80;;;;;9.50;100677.00;;;;5018820;28;20204;-74
2022/11/20 12:03:28;;;;;;;15.80;12.02;;;;;9.60;100672.00;;;;5015965;28;20203;-75
2022/11/20 12:06:00;;;;;;;17.90;11.68;;;;;9.60;100663.00;;;;5016310;28;20204;-75
2022/11/20 12:08:33;;;;;;;16.60;11.85;;;;;9.60;100668.00;;;;5014697;28;20194;-76
2022/11/20 12:11:07;;;;;;;15.80;11.40;;;;;9.60;100663.00;;;;5021140;28;20199;-75
2022/11/20 12:13:44;;;;;;;18.85;12.18;;;;;9.70;100659.00;;;;5026694;28;20224;-75
2022/11/20 12:16:14;;;;;;;17.48;11.20;;;;;9.70;100654.00;;;;5023874;28;20199;-75
2022/11/20 12:18:43;;;;;;;17.95;11.02;;;;;9.70;100639.00;;;;5024343;28;20235;-75
2022/11/20 12:21:21;;;;;;;19.20;11.77;;;;;9.60;100643.00;;;;5022299;28;20199;-75
2022/11/20 12:24:16;;;;;;;17.08;10.68;;;;;9.60;100644.00;;;;5019505;28;20208;-75
2022/11/20 12:26:57;;;;;;;15.85;10.32;;;;;9.60;100634.00;;;;5015465;28;20200;-75
2022/11/20 12:29:35;;;;;;;14.40;9.40;;;;;9.70;100634.00;;;;5012543;28;20193;-75
2022/11/20 12:32:32;;;;;;;18.73;11.30;;;;;9.60;100628.00;;;;5013218;28;20196;-75
2022/11/20 12:35:11;;;;;;;18.02;11.60;;;;;9.70;100620.00;;;;5009055;28;20192;-75